sensor_id;sensor_type;location;lat;lon;timestamp;temperature;humidity
21033;DHT22;10675;47.976;7.824;2023-07-20T00:01:02;21.70;68.70
21033;DHT22;10675;47.976;7.824;2023-07-20T00:03:27;21.70;70.30
21033;DHT22;10675;47.976;7.824;2023-07-20T00:05:53;21.70;69.90
21033;DHT22;10675;47.976;7.824;2023-07-20T00:08:18;21.50;71.80
21033;DHT22;10675;47.976;7.824;2023-07-20T00:10:44;21.50;72.30
21033;DHT22;10675;47.976;7.824;2023-07-20T00:13:11;21.40;73.60
21033;DHT22;10675;47.976;7.824;2023-07-20T00:15:37;21.40;72.90
21033;DHT22;10675;47.976;7.824;2023-07-20T00:18:06;21.40;74.40
21033;DHT22;10675;47.976;7.824;2023-07-20T00:20:32;21.40;74.60
21033;DHT22;10675;47.976;7.824;2023-07-20T00:22:57;21.30;74.40
21033;DHT22;10675;47.976;7.824;2023-07-20T00:25:24;21.30;75.20
21033;DHT22;10675;47.976;7.824;2023-07-20T00:27:50;21.30;74.70
21033;DHT22;10675;47.976;7.824;2023-07-20T00:30:15;21.30;76.00
21033;DHT22;10675;47.976;7.824;2023-07-20T00:32:42;21.20;76.50
21033;DHT22;10675;47.976;7.824;2023-07-20T00:35:08;21.20;76.60
21033;DHT22;10675;47.976;7.824;2023-07-20T00:37:34;21.30;76.80
21033;DHT22;10675;47.976;7.824;2023-07-20T00:39:59;21.30;76.30
21033;DHT22;10675;47.976;7.824;2023-07-20T00:42:25;21.20;77.40
21033;DHT22;10675;47.976;7.824;2023-07-20T00:44:50;21.20;78.50
21033;DHT22;10675;47.976;7.824;2023-07-20T00:47:16;21.10;78.50
21033;DHT22;10675;47.976;7.824;2023-07-20T00:49:42;21.10;79.70
21033;DHT22;10675;47.976;7.824;2023-07-20T00:52:08;21.00;80.80
21033;DHT22;10675;47.976;7.824;2023-07-20T00:54:37;21.00;79.00
21033;DHT22;10675;47.976;7.824;2023-07-20T00:57:03;20.90;81.00
21033;DHT22;10675;47.976;7.824;2023-07-20T00:59:29;20.90;80.60
21033;DHT22;10675;47.976;7.824;2023-07-20T01:01:55;20.90;79.50
21033;DHT22;10675;47.976;7.824;2023-07-20T01:04:20;20.80;80.60
21033;DHT22;10675;47.976;7.824;2023-07-20T01:07:24;20.80;81.50
21033;DHT22;10675;47.976;7.824;2023-07-20T01:12:30;20.80;81.60
21033;DHT22;10675;47.976;7.824;2023-07-20T01:14:58;20.70;84.30
21033;DHT22;10675;47.976;7.824;2023-07-20T01:17:24;20.70;84.80
21033;DHT22;10675;47.976;7.824;2023-07-20T01:19:49;20.70;85.10
21033;DHT22;10675;47.976;7.824;2023-07-20T01:30:43;20.70;84.80
21033;DHT22;10675;47.976;7.824;2023-07-20T01:33:13;20.80;85.80
21033;DHT22;10675;47.976;7.824;2023-07-20T01:35:41;20.70;86.30
21033;DHT22;10675;47.976;7.824;2023-07-20T01:38:10;20.60;87.40
21033;DHT22;10675;47.976;7.824;2023-07-20T01:40:36;20.50;86.60
21033;DHT22;10675;47.976;7.824;2023-07-20T01:43:02;20.50;87.40
21033;DHT22;10675;47.976;7.824;2023-07-20T01:45:28;20.50;88.20
21033;DHT22;10675;47.976;7.824;2023-07-20T01:47:54;20.50;88.80
21033;DHT22;10675;47.976;7.824;2023-07-20T01:50:19;20.50;90.00
21033;DHT22;10675;47.976;7.824;2023-07-20T01:52:45;20.50;90.70
21033;DHT22;10675;47.976;7.824;2023-07-20T01:55:10;20.40;90.90
21033;DHT22;10675;47.976;7.824;2023-07-20T01:57:36;20.40;91.00
21033;DHT22;10675;47.976;7.824;2023-07-20T02:00:02;20.30;91.40
21033;DHT22;10675;47.976;7.824;2023-07-20T02:02:28;20.30;91.60
21033;DHT22;10675;47.976;7.824;2023-07-20T02:04:54;20.30;92.10
21033;DHT22;10675;47.976;7.824;2023-07-20T02:07:19;20.30;91.90
21033;DHT22;10675;47.976;7.824;2023-07-20T02:09:45;20.30;92.20
21033;DHT22;10675;47.976;7.824;2023-07-20T02:12:10;20.20;92.40
21033;DHT22;10675;47.976;7.824;2023-07-20T02:14:36;20.20;92.20
21033;DHT22;10675;47.976;7.824;2023-07-20T02:17:01;20.20;92.10
21033;DHT22;10675;47.976;7.824;2023-07-20T02:19:28;20.20;92.50
21033;DHT22;10675;47.976;7.824;2023-07-20T02:21:54;20.20;92.90
21033;DHT22;10675;47.976;7.824;2023-07-20T02:24:19;20.20;92.40
21033;DHT22;10675;47.976;7.824;2023-07-20T02:26:45;20.20;92.20
21033;DHT22;10675;47.976;7.824;2023-07-20T02:29:10;20.20;92.00
21033;DHT22;10675;47.976;7.824;2023-07-20T02:31:39;20.10;92.20
21033;DHT22;10675;47.976;7.824;2023-07-20T02:34:07;20.10;92.10
21033;DHT22;10675;47.976;7.824;2023-07-20T02:36:34;20.10;92.30
21033;DHT22;10675;47.976;7.824;2023-07-20T02:39:00;20.00;92.90
21033;DHT22;10675;47.976;7.824;2023-07-20T02:41:27;20.00;92.80
21033;DHT22;10675;47.976;7.824;2023-07-20T02:43:53;20.00;92.40
21033;DHT22;10675;47.976;7.824;2023-07-20T02:46:18;20.00;92.40
21033;DHT22;10675;47.976;7.824;2023-07-20T02:48:44;20.00;92.80
21033;DHT22;10675;47.976;7.824;2023-07-20T02:51:09;20.00;92.10
21033;DHT22;10675;47.976;7.824;2023-07-20T02:53:36;20.00;91.40
21033;DHT22;10675;47.976;7.824;2023-07-20T02:56:02;19.90;91.30
21033;DHT22;10675;47.976;7.824;2023-07-20T02:58:27;19.90;91.20
21033;DHT22;10675;47.976;7.824;2023-07-20T03:00:53;19.80;91.40
21033;DHT22;10675;47.976;7.824;2023-07-20T03:03:19;19.70;91.50
21033;DHT22;10675;47.976;7.824;2023-07-20T03:05:45;19.70;91.50
21033;DHT22;10675;47.976;7.824;2023-07-20T03:08:10;19.60;92.10
21033;DHT22;10675;47.976;7.824;2023-07-20T03:10:40;19.60;92.60
21033;DHT22;10675;47.976;7.824;2023-07-20T03:13:06;19.60;92.50
21033;DHT22;10675;47.976;7.824;2023-07-20T03:15:32;19.50;92.40
21033;DHT22;10675;47.976;7.824;2023-07-20T03:17:57;19.60;92.60
21033;DHT22;10675;47.976;7.824;2023-07-20T03:20:24;19.60;92.40
21033;DHT22;10675;47.976;7.824;2023-07-20T03:22:49;19.50;91.80
21033;DHT22;10675;47.976;7.824;2023-07-20T03:25:15;19.50;91.50
21033;DHT22;10675;47.976;7.824;2023-07-20T03:27:40;19.50;91.60
21033;DHT22;10675;47.976;7.824;2023-07-20T03:30:06;19.40;91.60
21033;DHT22;10675;47.976;7.824;2023-07-20T03:32:32;19.50;91.70
21033;DHT22;10675;47.976;7.824;2023-07-20T03:34:58;19.50;91.40
21033;DHT22;10675;47.976;7.824;2023-07-20T03:37:23;19.40;91.60
21033;DHT22;10675;47.976;7.824;2023-07-20T03:39:49;19.40;91.40
21033;DHT22;10675;47.976;7.824;2023-07-20T03:42:14;19.40;91.40
21033;DHT22;10675;47.976;7.824;2023-07-20T03:44:40;19.40;91.30
21033;DHT22;10675;47.976;7.824;2023-07-20T03:47:06;19.40;92.40
21033;DHT22;10675;47.976;7.824;2023-07-20T03:49:32;19.40;93.00
21033;DHT22;10675;47.976;7.824;2023-07-20T03:51:57;19.30;92.60
21033;DHT22;10675;47.976;7.824;2023-07-20T03:54:23;19.20;92.00
21033;DHT22;10675;47.976;7.824;2023-07-20T03:56:48;19.20;92.20
21033;DHT22;10675;47.976;7.824;2023-07-20T03:59:14;19.20;92.40
21033;DHT22;10675;47.976;7.824;2023-07-20T04:01:40;19.20;93.10
21033;DHT22;10675;47.976;7.824;2023-07-20T04:04:07;19.10;93.00
21033;DHT22;10675;47.976;7.824;2023-07-20T04:06:33;19.10;93.40
21033;DHT22;10675;47.976;7.824;2023-07-20T04:08:59;19.10;93.20
21033;DHT22;10675;47.976;7.824;2023-07-20T04:11:24;19.10;92.80
21033;DHT22;10675;47.976;7.824;2023-07-20T04:13:50;19.00;92.80
21033;DHT22;10675;47.976;7.824;2023-07-20T04:16:15;19.00;93.20
21033;DHT22;10675;47.976;7.824;2023-07-20T04:18:41;19.00;93.60
21033;DHT22;10675;47.976;7.824;2023-07-20T04:21:08;19.00;93.50
21033;DHT22;10675;47.976;7.824;2023-07-20T04:23:34;18.90;94.50
21033;DHT22;10675;47.976;7.824;2023-07-20T04:26:00;18.90;94.20
21033;DHT22;10675;47.976;7.824;2023-07-20T04:28:26;18.80;95.00
21033;DHT22;10675;47.976;7.824;2023-07-20T04:30:52;18.90;95.30
21033;DHT22;10675;47.976;7.824;2023-07-20T04:33:18;18.90;94.30
21033;DHT22;10675;47.976;7.824;2023-07-20T04:35:53;18.90;94.10
21033;DHT22;10675;47.976;7.824;2023-07-20T04:38:19;18.80;94.10
21033;DHT22;10675;47.976;7.824;2023-07-20T04:40:46;18.90;94.30
21033;DHT22;10675;47.976;7.824;2023-07-20T04:43:12;18.90;94.30
21033;DHT22;10675;47.976;7.824;2023-07-20T04:45:38;18.90;94.30
21033;DHT22;10675;47.976;7.824;2023-07-20T04:48:09;18.90;94.40
21033;DHT22;10675;47.976;7.824;2023-07-20T04:50:40;19.00;94.90
21033;DHT22;10675;47.976;7.824;2023-07-20T04:53:05;19.00;94.50
21033;DHT22;10675;47.976;7.824;2023-07-20T04:55:31;19.00;94.40
21033;DHT22;10675;47.976;7.824;2023-07-20T04:58:00;19.00;95.20
21033;DHT22;10675;47.976;7.824;2023-07-20T05:00:25;18.90;95.90
21033;DHT22;10675;47.976;7.824;2023-07-20T05:02:51;18.90;96.40
21033;DHT22;10675;47.976;7.824;2023-07-20T05:05:17;18.90;96.60
21033;DHT22;10675;47.976;7.824;2023-07-20T05:07:42;18.90;96.70
21033;DHT22;10675;47.976;7.824;2023-07-20T05:10:08;18.80;97.40
21033;DHT22;10675;47.976;7.824;2023-07-20T05:12:34;18.80;98.40
21033;DHT22;10675;47.976;7.824;2023-07-20T05:14:59;18.70;98.60
21033;DHT22;10675;47.976;7.824;2023-07-20T05:17:25;18.70;98.10
21033;DHT22;10675;47.976;7.824;2023-07-20T05:19:50;18.70;98.10
21033;DHT22;10675;47.976;7.824;2023-07-20T05:22:16;18.60;99.10
21033;DHT22;10675;47.976;7.824;2023-07-20T05:24:42;18.70;99.90
21033;DHT22;10675;47.976;7.824;2023-07-20T05:27:08;18.80;99.70
21033;DHT22;10675;47.976;7.824;2023-07-20T05:29:33;19.00;99.60
21033;DHT22;10675;47.976;7.824;2023-07-20T05:31:59;19.00;99.90
21033;DHT22;10675;47.976;7.824;2023-07-20T05:34:24;19.00;99.90
21033;DHT22;10675;47.976;7.824;2023-07-20T05:36:50;19.00;99.90
21033;DHT22;10675;47.976;7.824;2023-07-20T05:39:17;19.00;99.90
21033;DHT22;10675;47.976;7.824;2023-07-20T05:41:42;19.10;99.90
21033;DHT22;10675;47.976;7.824;2023-07-20T05:44:08;19.10;99.90
21033;DHT22;10675;47.976;7.824;2023-07-20T05:46:33;19.00;99.90
21033;DHT22;10675;47.976;7.824;2023-07-20T05:48:59;19.10;99.90
21033;DHT22;10675;47.976;7.824;2023-07-20T05:51:25;19.30;99.90
21033;DHT22;10675;47.976;7.824;2023-07-20T05:53:51;19.30;99.00
21033;DHT22;10675;47.976;7.824;2023-07-20T05:56:16;19.40;98.40
21033;DHT22;10675;47.976;7.824;2023-07-20T05:58:42;19.40;98.10
21033;DHT22;10675;47.976;7.824;2023-07-20T06:01:08;19.40;98.80
21033;DHT22;10675;47.976;7.824;2023-07-20T06:03:33;19.50;98.80
21033;DHT22;10675;47.976;7.824;2023-07-20T06:06:03;19.50;99.30
21033;DHT22;10675;47.976;7.824;2023-07-20T06:08:30;19.40;99.60
21033;DHT22;10675;47.976;7.824;2023-07-20T06:10:56;19.50;99.00
21033;DHT22;10675;47.976;7.824;2023-07-20T06:13:22;19.50;97.70
21033;DHT22;10675;47.976;7.824;2023-07-20T06:15:49;19.60;97.50
21033;DHT22;10675;47.976;7.824;2023-07-20T06:18:14;19.70;97.30
21033;DHT22;10675;47.976;7.824;2023-07-20T06:20:40;19.80;97.40
21033;DHT22;10675;47.976;7.824;2023-07-20T06:23:06;19.80;97.30
21033;DHT22;10675;47.976;7.824;2023-07-20T06:25:32;19.80;97.40
21033;DHT22;10675;47.976;7.824;2023-07-20T06:27:57;20.00;98.00
21033;DHT22;10675;47.976;7.824;2023-07-20T06:30:23;20.10;98.00
21033;DHT22;10675;47.976;7.824;2023-07-20T06:32:49;20.20;97.40
21033;DHT22;10675;47.976;7.824;2023-07-20T06:35:15;20.30;97.10
21033;DHT22;10675;47.976;7.824;2023-07-20T06:37:41;20.30;96.20
21033;DHT22;10675;47.976;7.824;2023-07-20T06:40:07;20.50;95.20
21033;DHT22;10675;47.976;7.824;2023-07-20T06:42:35;20.80;94.50
21033;DHT22;10675;47.976;7.824;2023-07-20T06:45:00;21.20;94.00
21033;DHT22;10675;47.976;7.824;2023-07-20T06:47:26;21.30;93.80
21033;DHT22;10675;47.976;7.824;2023-07-20T06:49:52;21.60;92.70
21033;DHT22;10675;47.976;7.824;2023-07-20T06:52:17;21.80;91.60
21033;DHT22;10675;47.976;7.824;2023-07-20T06:54:43;21.80;89.40
21033;DHT22;10675;47.976;7.824;2023-07-20T06:57:08;21.70;89.00
21033;DHT22;10675;47.976;7.824;2023-07-20T06:59:34;21.80;86.40
21033;DHT22;10675;47.976;7.824;2023-07-20T07:02:00;21.90;87.70
21033;DHT22;10675;47.976;7.824;2023-07-20T07:04:25;22.00;86.40
21033;DHT22;10675;47.976;7.824;2023-07-20T07:06:51;21.80;84.40
21033;DHT22;10675;47.976;7.824;2023-07-20T07:09:16;21.60;87.00
21033;DHT22;10675;47.976;7.824;2023-07-20T07:11:42;21.40;88.20
21033;DHT22;10675;47.976;7.824;2023-07-20T07:14:07;21.40;87.60
21033;DHT22;10675;47.976;7.824;2023-07-20T07:16:33;21.30;87.40
21033;DHT22;10675;47.976;7.824;2023-07-20T07:18:58;21.50;88.50
21033;DHT22;10675;47.976;7.824;2023-07-20T07:21:24;21.80;86.50
21033;DHT22;10675;47.976;7.824;2023-07-20T07:23:51;21.90;84.50
21033;DHT22;10675;47.976;7.824;2023-07-20T07:26:18;21.80;83.90
21033;DHT22;10675;47.976;7.824;2023-07-20T07:28:44;21.80;81.90
21033;DHT22;10675;47.976;7.824;2023-07-20T07:31:10;21.80;82.20
21033;DHT22;10675;47.976;7.824;2023-07-20T07:33:35;22.10;82.80
21033;DHT22;10675;47.976;7.824;2023-07-20T07:36:01;22.10;83.40
21033;DHT22;10675;47.976;7.824;2023-07-20T07:38:27;22.10;80.80
21033;DHT22;10675;47.976;7.824;2023-07-20T07:40:52;22.20;79.30
21033;DHT22;10675;47.976;7.824;2023-07-20T07:43:18;22.10;78.70
21033;DHT22;10675;47.976;7.824;2023-07-20T07:45:43;22.10;78.70
21033;DHT22;10675;47.976;7.824;2023-07-20T07:48:09;22.20;79.70
21033;DHT22;10675;47.976;7.824;2023-07-20T07:50:36;22.10;81.20
21033;DHT22;10675;47.976;7.824;2023-07-20T07:53:02;22.30;79.40
21033;DHT22;10675;47.976;7.824;2023-07-20T07:55:28;22.50;77.20
21033;DHT22;10675;47.976;7.824;2023-07-20T07:57:54;22.80;77.20
21033;DHT22;10675;47.976;7.824;2023-07-20T08:00:20;22.80;75.80
21033;DHT22;10675;47.976;7.824;2023-07-20T08:02:46;22.70;74.60
21033;DHT22;10675;47.976;7.824;2023-07-20T08:05:14;22.70;75.00
21033;DHT22;10675;47.976;7.824;2023-07-20T08:07:40;22.50;74.80
21033;DHT22;10675;47.976;7.824;2023-07-20T08:10:06;22.70;74.90
21033;DHT22;10675;47.976;7.824;2023-07-20T08:12:32;22.80;74.40
21033;DHT22;10675;47.976;7.824;2023-07-20T08:14:58;22.70;73.90
21033;DHT22;10675;47.976;7.824;2023-07-20T08:17:24;22.60;74.90
21033;DHT22;10675;47.976;7.824;2023-07-20T08:19:49;22.40;74.60
21033;DHT22;10675;47.976;7.824;2023-07-20T08:22:15;22.30;74.30
21033;DHT22;10675;47.976;7.824;2023-07-20T08:24:41;22.40;73.60
21033;DHT22;10675;47.976;7.824;2023-07-20T08:27:07;22.50;75.70
21033;DHT22;10675;47.976;7.824;2023-07-20T08:29:34;22.60;76.60
21033;DHT22;10675;47.976;7.824;2023-07-20T08:31:59;22.70;74.30
21033;DHT22;10675;47.976;7.824;2023-07-20T08:34:25;22.70;74.70
21033;DHT22;10675;47.976;7.824;2023-07-20T08:36:50;22.90;75.60
21033;DHT22;10675;47.976;7.824;2023-07-20T08:39:16;23.00;73.40
21033;DHT22;10675;47.976;7.824;2023-07-20T08:41:46;22.80;74.20
21033;DHT22;10675;47.976;7.824;2023-07-20T08:44:12;22.80;75.90
21033;DHT22;10675;47.976;7.824;2023-07-20T08:46:38;22.70;74.30
21033;DHT22;10675;47.976;7.824;2023-07-20T08:49:06;22.60;75.90
21033;DHT22;10675;47.976;7.824;2023-07-20T08:51:32;22.50;74.30
21033;DHT22;10675;47.976;7.824;2023-07-20T08:53:59;22.50;72.60
21033;DHT22;10675;47.976;7.824;2023-07-20T08:56:26;22.50;70.50
21033;DHT22;10675;47.976;7.824;2023-07-20T08:58:53;22.50;71.20
21033;DHT22;10675;47.976;7.824;2023-07-20T09:01:19;22.60;73.10
21033;DHT22;10675;47.976;7.824;2023-07-20T09:03:46;22.50;76.60
21033;DHT22;10675;47.976;7.824;2023-07-20T09:06:12;22.50;72.70
21033;DHT22;10675;47.976;7.824;2023-07-20T09:08:40;22.40;74.90
21033;DHT22;10675;47.976;7.824;2023-07-20T09:11:05;22.30;72.20
21033;DHT22;10675;47.976;7.824;2023-07-20T09:13:32;22.50;72.30
21033;DHT22;10675;47.976;7.824;2023-07-20T09:15:58;22.80;71.70
21033;DHT22;10675;47.976;7.824;2023-07-20T09:18:29;23.00;67.50
21033;DHT22;10675;47.976;7.824;2023-07-20T09:21:06;23.20;68.50
21033;DHT22;10675;47.976;7.824;2023-07-20T09:23:37;23.50;69.50
21033;DHT22;10675;47.976;7.824;2023-07-20T09:26:13;23.80;67.90
21033;DHT22;10675;47.976;7.824;2023-07-20T09:28:51;24.10;66.50
21033;DHT22;10675;47.976;7.824;2023-07-20T09:31:18;24.10;66.60
21033;DHT22;10675;47.976;7.824;2023-07-20T09:33:45;24.20;67.80
21033;DHT22;10675;47.976;7.824;2023-07-20T09:36:10;24.50;65.80
21033;DHT22;10675;47.976;7.824;2023-07-20T09:38:42;24.20;64.60
21033;DHT22;10675;47.976;7.824;2023-07-20T09:41:15;24.40;64.40
21033;DHT22;10675;47.976;7.824;2023-07-20T09:43:43;24.40;64.20
21033;DHT22;10675;47.976;7.824;2023-07-20T09:46:10;24.50;63.30
21033;DHT22;10675;47.976;7.824;2023-07-20T09:48:36;24.60;63.80
21033;DHT22;10675;47.976;7.824;2023-07-20T09:51:02;24.60;64.00
21033;DHT22;10675;47.976;7.824;2023-07-20T09:53:28;24.70;64.20
21033;DHT22;10675;47.976;7.824;2023-07-20T09:55:55;24.80;62.70
21033;DHT22;10675;47.976;7.824;2023-07-20T09:58:21;25.00;60.50
21033;DHT22;10675;47.976;7.824;2023-07-20T10:00:48;25.10;61.70
21033;DHT22;10675;47.976;7.824;2023-07-20T10:03:19;25.10;61.60
21033;DHT22;10675;47.976;7.824;2023-07-20T10:05:49;25.30;60.80
21033;DHT22;10675;47.976;7.824;2023-07-20T10:08:17;25.30;60.00
21033;DHT22;10675;47.976;7.824;2023-07-20T10:10:44;25.20;60.30
21033;DHT22;10675;47.976;7.824;2023-07-20T10:13:26;25.40;60.30
21033;DHT22;10675;47.976;7.824;2023-07-20T10:15:59;25.30;60.10
21033;DHT22;10675;47.976;7.824;2023-07-20T10:18:35;25.30;59.10
21033;DHT22;10675;47.976;7.824;2023-07-20T10:21:06;25.40;59.70
21033;DHT22;10675;47.976;7.824;2023-07-20T10:23:33;25.10;58.80
21033;DHT22;10675;47.976;7.824;2023-07-20T10:26:01;24.90;59.20
21033;DHT22;10675;47.976;7.824;2023-07-20T10:28:27;25.00;59.60
21033;DHT22;10675;47.976;7.824;2023-07-20T10:30:53;24.60;60.40
21033;DHT22;10675;47.976;7.824;2023-07-20T10:33:19;24.50;61.20
21033;DHT22;10675;47.976;7.824;2023-07-20T10:36:01;24.10;61.30
21033;DHT22;10675;47.976;7.824;2023-07-20T10:41:50;24.10;64.10
21033;DHT22;10675;47.976;7.824;2023-07-20T10:44:08;24.10;61.10
21033;DHT22;10675;47.976;7.824;2023-07-20T10:49:05;25.10;59.70
21033;DHT22;10675;47.976;7.824;2023-07-20T10:51:45;25.30;58.90
21033;DHT22;10675;47.976;7.824;2023-07-20T10:56:44;25.30;57.90
21033;DHT22;10675;47.976;7.824;2023-07-20T11:01:55;25.80;57.20
21033;DHT22;10675;47.976;7.824;2023-07-20T11:04:45;26.20;57.80
21033;DHT22;10675;47.976;7.824;2023-07-20T11:07:15;26.40;55.20
21033;DHT22;10675;47.976;7.824;2023-07-20T11:09:42;26.50;56.60
21033;DHT22;10675;47.976;7.824;2023-07-20T11:12:15;26.80;55.90
21033;DHT22;10675;47.976;7.824;2023-07-20T11:14:43;27.00;55.80
21033;DHT22;10675;47.976;7.824;2023-07-20T11:17:13;27.00;55.10
21033;DHT22;10675;47.976;7.824;2023-07-20T11:19:39;26.70;55.10
21033;DHT22;10675;47.976;7.824;2023-07-20T11:22:07;26.30;54.50
21033;DHT22;10675;47.976;7.824;2023-07-20T11:24:33;26.10;53.50
21033;DHT22;10675;47.976;7.824;2023-07-20T11:26:59;25.80;54.20
21033;DHT22;10675;47.976;7.824;2023-07-20T11:29:26;26.20;55.20
21033;DHT22;10675;47.976;7.824;2023-07-20T11:31:52;26.10;56.00
21033;DHT22;10675;47.976;7.824;2023-07-20T11:34:19;25.90;56.60
21033;DHT22;10675;47.976;7.824;2023-07-20T11:36:46;25.80;55.20
21033;DHT22;10675;47.976;7.824;2023-07-20T11:39:14;25.90;56.40
21033;DHT22;10675;47.976;7.824;2023-07-20T11:41:45;25.80;57.00
21033;DHT22;10675;47.976;7.824;2023-07-20T11:44:12;25.90;56.90
21033;DHT22;10675;47.976;7.824;2023-07-20T11:46:39;26.20;56.70
21033;DHT22;10675;47.976;7.824;2023-07-20T11:49:05;26.40;56.50
21033;DHT22;10675;47.976;7.824;2023-07-20T11:51:31;26.80;56.00
21033;DHT22;10675;47.976;7.824;2023-07-20T11:53:57;26.60;54.90
21033;DHT22;10675;47.976;7.824;2023-07-20T11:56:26;26.30;56.10
21033;DHT22;10675;47.976;7.824;2023-07-20T11:58:55;26.60;56.40
21033;DHT22;10675;47.976;7.824;2023-07-20T12:01:23;26.80;56.00
21033;DHT22;10675;47.976;7.824;2023-07-20T12:03:48;26.90;53.20
21033;DHT22;10675;47.976;7.824;2023-07-20T12:06:15;26.60;52.90
21033;DHT22;10675;47.976;7.824;2023-07-20T12:08:44;26.00;53.90
21033;DHT22;10675;47.976;7.824;2023-07-20T12:11:10;25.50;55.20
21033;DHT22;10675;47.976;7.824;2023-07-20T12:13:37;25.90;54.60
21033;DHT22;10675;47.976;7.824;2023-07-20T12:16:10;26.00;54.70
21033;DHT22;10675;47.976;7.824;2023-07-20T12:18:36;25.80;54.90
21033;DHT22;10675;47.976;7.824;2023-07-20T12:21:01;25.60;56.00
21033;DHT22;10675;47.976;7.824;2023-07-20T12:23:35;25.50;56.80
21033;DHT22;10675;47.976;7.824;2023-07-20T12:26:02;25.40;56.40
21033;DHT22;10675;47.976;7.824;2023-07-20T12:28:29;25.50;58.20
21033;DHT22;10675;47.976;7.824;2023-07-20T12:30:55;25.60;56.30
21033;DHT22;10675;47.976;7.824;2023-07-20T12:33:24;25.90;56.40
21033;DHT22;10675;47.976;7.824;2023-07-20T12:35:49;25.70;56.50
21033;DHT22;10675;47.976;7.824;2023-07-20T12:38:15;25.90;56.30
21033;DHT22;10675;47.976;7.824;2023-07-20T12:40:42;25.90;55.10
21033;DHT22;10675;47.976;7.824;2023-07-20T12:43:07;25.60;57.20
21033;DHT22;10675;47.976;7.824;2023-07-20T12:45:33;25.50;57.50
21033;DHT22;10675;47.976;7.824;2023-07-20T12:47:59;25.80;55.00
21033;DHT22;10675;47.976;7.824;2023-07-20T12:50:25;26.50;55.40
21033;DHT22;10675;47.976;7.824;2023-07-20T12:52:50;26.60;53.50
21033;DHT22;10675;47.976;7.824;2023-07-20T12:55:16;26.90;54.00
21033;DHT22;10675;47.976;7.824;2023-07-20T12:57:42;27.20;54.80
21033;DHT22;10675;47.976;7.824;2023-07-20T13:00:09;27.00;53.80
21033;DHT22;10675;47.976;7.824;2023-07-20T13:02:37;26.90;52.10
21033;DHT22;10675;47.976;7.824;2023-07-20T13:05:03;27.20;54.00
21033;DHT22;10675;47.976;7.824;2023-07-20T13:07:36;27.00;53.90
21033;DHT22;10675;47.976;7.824;2023-07-20T13:10:03;26.70;53.50
21033;DHT22;10675;47.976;7.824;2023-07-20T13:12:32;26.80;54.30
21033;DHT22;10675;47.976;7.824;2023-07-20T13:14:58;27.40;52.80
21033;DHT22;10675;47.976;7.824;2023-07-20T13:17:26;27.80;51.60
21033;DHT22;10675;47.976;7.824;2023-07-20T13:19:53;28.10;48.10
21033;DHT22;10675;47.976;7.824;2023-07-20T13:22:18;28.10;49.50
21033;DHT22;10675;47.976;7.824;2023-07-20T13:24:47;28.40;49.70
21033;DHT22;10675;47.976;7.824;2023-07-20T13:27:17;28.70;48.60
21033;DHT22;10675;47.976;7.824;2023-07-20T13:29:43;29.00;48.40
21033;DHT22;10675;47.976;7.824;2023-07-20T13:32:09;29.10;47.70
21033;DHT22;10675;47.976;7.824;2023-07-20T13:34:35;29.00;49.30
21033;DHT22;10675;47.976;7.824;2023-07-20T13:37:01;28.90;48.80
21033;DHT22;10675;47.976;7.824;2023-07-20T13:39:27;29.10;46.40
21033;DHT22;10675;47.976;7.824;2023-07-20T13:41:53;29.20;46.10
21033;DHT22;10675;47.976;7.824;2023-07-20T13:44:19;29.20;45.20
21033;DHT22;10675;47.976;7.824;2023-07-20T13:46:46;29.10;45.10
21033;DHT22;10675;47.976;7.824;2023-07-20T13:49:12;29.00;46.10
21033;DHT22;10675;47.976;7.824;2023-07-20T13:51:37;29.30;47.40
21033;DHT22;10675;47.976;7.824;2023-07-20T13:54:03;29.20;46.60
21033;DHT22;10675;47.976;7.824;2023-07-20T13:56:29;29.30;46.50
21033;DHT22;10675;47.976;7.824;2023-07-20T13:58:54;29.20;46.40
21033;DHT22;10675;47.976;7.824;2023-07-20T14:01:20;29.00;45.80
21033;DHT22;10675;47.976;7.824;2023-07-20T14:03:48;29.00;45.50
21033;DHT22;10675;47.976;7.824;2023-07-20T14:06:14;28.60;45.60
21033;DHT22;10675;47.976;7.824;2023-07-20T14:08:40;28.20;45.90
21033;DHT22;10675;47.976;7.824;2023-07-20T14:11:06;28.40;47.50
21033;DHT22;10675;47.976;7.824;2023-07-20T14:13:31;28.10;46.40
21033;DHT22;10675;47.976;7.824;2023-07-20T14:15:57;27.90;47.50
21033;DHT22;10675;47.976;7.824;2023-07-20T14:18:23;28.00;48.60
21033;DHT22;10675;47.976;7.824;2023-07-20T14:20:49;27.70;46.80
21033;DHT22;10675;47.976;7.824;2023-07-20T14:23:14;27.50;47.10
21033;DHT22;10675;47.976;7.824;2023-07-20T14:25:40;27.40;48.30
21033;DHT22;10675;47.976;7.824;2023-07-20T14:28:07;27.30;49.10
21033;DHT22;10675;47.976;7.824;2023-07-20T14:30:32;27.10;49.80
21033;DHT22;10675;47.976;7.824;2023-07-20T14:32:58;26.70;49.10
21033;DHT22;10675;47.976;7.824;2023-07-20T14:35:23;26.70;50.30
21033;DHT22;10675;47.976;7.824;2023-07-20T14:37:49;26.80;49.20
21033;DHT22;10675;47.976;7.824;2023-07-20T14:40:15;26.50;47.80
21033;DHT22;10675;47.976;7.824;2023-07-20T14:42:41;26.50;48.80
21033;DHT22;10675;47.976;7.824;2023-07-20T14:45:07;26.70;49.70
21033;DHT22;10675;47.976;7.824;2023-07-20T14:47:33;26.70;49.80
21033;DHT22;10675;47.976;7.824;2023-07-20T14:50:01;26.60;49.10
21033;DHT22;10675;47.976;7.824;2023-07-20T14:52:28;26.80;49.20
21033;DHT22;10675;47.976;7.824;2023-07-20T14:54:53;26.90;47.60
21033;DHT22;10675;47.976;7.824;2023-07-20T14:57:19;26.80;48.70
21033;DHT22;10675;47.976;7.824;2023-07-20T14:59:46;27.00;48.70
21033;DHT22;10675;47.976;7.824;2023-07-20T15:02:11;27.00;47.80
21033;DHT22;10675;47.976;7.824;2023-07-20T15:04:45;27.00;48.80
21033;DHT22;10675;47.976;7.824;2023-07-20T15:07:11;27.00;49.00
21033;DHT22;10675;47.976;7.824;2023-07-20T15:09:36;27.10;48.00
21033;DHT22;10675;47.976;7.824;2023-07-20T15:12:02;27.10;48.60
21033;DHT22;10675;47.976;7.824;2023-07-20T15:14:28;27.20;48.00
21033;DHT22;10675;47.976;7.824;2023-07-20T15:16:53;27.20;50.00
21033;DHT22;10675;47.976;7.824;2023-07-20T15:19:19;27.20;48.90
21033;DHT22;10675;47.976;7.824;2023-07-20T15:21:44;27.00;48.30
21033;DHT22;10675;47.976;7.824;2023-07-20T15:24:10;27.00;49.20
21033;DHT22;10675;47.976;7.824;2023-07-20T15:26:35;26.90;49.40
21033;DHT22;10675;47.976;7.824;2023-07-20T15:29:01;26.80;49.10
21033;DHT22;10675;47.976;7.824;2023-07-20T15:31:26;26.90;48.90
21033;DHT22;10675;47.976;7.824;2023-07-20T15:33:53;27.00;48.60
21033;DHT22;10675;47.976;7.824;2023-07-20T15:36:18;26.80;48.40
21033;DHT22;10675;47.976;7.824;2023-07-20T15:38:44;26.80;49.20
21033;DHT22;10675;47.976;7.824;2023-07-20T15:41:09;26.80;48.90
21033;DHT22;10675;47.976;7.824;2023-07-20T15:43:35;26.70;48.60
21033;DHT22;10675;47.976;7.824;2023-07-20T15:49:01;26.50;50.30
21033;DHT22;10675;47.976;7.824;2023-07-20T15:51:27;26.70;51.00